sensor_id;sensor_type;location;lat;lon;timestamp;temperature;humidity
52575;DHT22;38468;48.114;-1.684;2024-01-10T00:00:19;2.20;59.50
52575;DHT22;38468;48.114;-1.684;2024-01-10T00:02:19;2.10;59.50
52575;DHT22;38468;48.114;-1.684;2024-01-10T00:04:20;2.20;59.50
52575;DHT22;38468;48.114;-1.684;2024-01-10T00:06:21;2.20;59.60
52575;DHT22;38468;48.114;-1.684;2024-01-10T00:08:23;2.20;59.60
52575;DHT22;38468;48.114;-1.684;2024-01-10T00:10:24;2.20;59.70
52575;DHT22;38468;48.114;-1.684;2024-01-10T00:12:25;2.20;59.70
52575;DHT22;38468;48.114;-1.684;2024-01-10T00:14:26;2.20;59.70
52575;DHT22;38468;48.114;-1.684;2024-01-10T00:16:26;2.20;59.70
52575;DHT22;38468;48.114;-1.684;2024-01-10T00:18:27;2.20;59.70
52575;DHT22;38468;48.114;-1.684;2024-01-10T00:20:28;2.20;59.80
52575;DHT22;38468;48.114;-1.684;2024-01-10T00:22:28;2.20;59.90
52575;DHT22;38468;48.114;-1.684;2024-01-10T00:24:29;2.20;59.90
52575;DHT22;38468;48.114;-1.684;2024-01-10T00:26:30;2.20;60.00
52575;DHT22;38468;48.114;-1.684;2024-01-10T00:28:30;2.20;59.90
52575;DHT22;38468;48.114;-1.684;2024-01-10T00:30:31;2.10;59.80
52575;DHT22;38468;48.114;-1.684;2024-01-10T00:32:32;2.10;59.80
52575;DHT22;38468;48.114;-1.684;2024-01-10T00:34:32;2.10;59.90
52575;DHT22;38468;48.114;-1.684;2024-01-10T00:36:33;2.10;60.00
52575;DHT22;38468;48.114;-1.684;2024-01-10T00:38:33;2.10;60.10
52575;DHT22;38468;48.114;-1.684;2024-01-10T00:41:52;2.10;60.20
52575;DHT22;38468;48.114;-1.684;2024-01-10T00:43:52;2.10;60.20
52575;DHT22;38468;48.114;-1.684;2024-01-10T00:45:54;2.10;60.30
52575;DHT22;38468;48.114;-1.684;2024-01-10T00:47:54;2.10;60.30
52575;DHT22;38468;48.114;-1.684;2024-01-10T00:49:55;2.10;60.40
52575;DHT22;38468;48.114;-1.684;2024-01-10T00:51:55;2.20;60.30
52575;DHT22;38468;48.114;-1.684;2024-01-10T00:53:56;2.20;60.30
52575;DHT22;38468;48.114;-1.684;2024-01-10T00:55:57;2.20;60.40
52575;DHT22;38468;48.114;-1.684;2024-01-10T00:57:57;2.20;60.40
52575;DHT22;38468;48.114;-1.684;2024-01-10T00:59:58;2.20;60.50
52575;DHT22;38468;48.114;-1.684;2024-01-10T01:01:59;2.20;60.40
52575;DHT22;38468;48.114;-1.684;2024-01-10T01:03:59;2.20;60.40
52575;DHT22;38468;48.114;-1.684;2024-01-10T01:06:00;2.20;60.40
52575;DHT22;38468;48.114;-1.684;2024-01-10T01:08:00;2.20;60.40
52575;DHT22;38468;48.114;-1.684;2024-01-10T01:10:01;2.20;60.40
52575;DHT22;38468;48.114;-1.684;2024-01-10T01:12:03;2.10;60.40
52575;DHT22;38468;48.114;-1.684;2024-01-10T01:14:04;2.10;60.30
52575;DHT22;38468;48.114;-1.684;2024-01-10T01:16:05;2.10;60.50
52575;DHT22;38468;48.114;-1.684;2024-01-10T01:18:05;2.10;60.50
52575;DHT22;38468;48.114;-1.684;2024-01-10T01:20:07;2.10;60.50
52575;DHT22;38468;48.114;-1.684;2024-01-10T01:22:08;2.10;60.50
52575;DHT22;38468;48.114;-1.684;2024-01-10T01:24:08;2.10;60.50
52575;DHT22;38468;48.114;-1.684;2024-01-10T01:26:09;2.10;60.50
52575;DHT22;38468;48.114;-1.684;2024-01-10T01:28:10;2.00;60.60
52575;DHT22;38468;48.114;-1.684;2024-01-10T01:30:11;2.00;60.50
52575;DHT22;38468;48.114;-1.684;2024-01-10T01:32:12;2.00;60.50
52575;DHT22;38468;48.114;-1.684;2024-01-10T01:34:12;2.00;60.60
52575;DHT22;38468;48.114;-1.684;2024-01-10T01:36:13;2.00;60.70
52575;DHT22;38468;48.114;-1.684;2024-01-10T01:38:14;2.00;60.80
52575;DHT22;38468;48.114;-1.684;2024-01-10T01:40:14;2.00;60.90
52575;DHT22;38468;48.114;-1.684;2024-01-10T01:42:15;1.90;60.90
52575;DHT22;38468;48.114;-1.684;2024-01-10T01:44:16;1.90;60.80
52575;DHT22;38468;48.114;-1.684;2024-01-10T01:46:16;1.90;60.90
52575;DHT22;38468;48.114;-1.684;2024-01-10T01:48:22;1.90;60.90
52575;DHT22;38468;48.114;-1.684;2024-01-10T01:50:23;1.90;61.00
52575;DHT22;38468;48.114;-1.684;2024-01-10T01:52:24;1.90;61.10
52575;DHT22;38468;48.114;-1.684;2024-01-10T01:54:26;1.90;61.10
52575;DHT22;38468;48.114;-1.684;2024-01-10T01:56:27;1.90;61.20
52575;DHT22;38468;48.114;-1.684;2024-01-10T01:58:27;1.90;61.20
52575;DHT22;38468;48.114;-1.684;2024-01-10T02:00:28;1.90;61.20
52575;DHT22;38468;48.114;-1.684;2024-01-10T02:02:30;1.90;61.20
52575;DHT22;38468;48.114;-1.684;2024-01-10T02:04:31;1.90;61.20
52575;DHT22;38468;48.114;-1.684;2024-01-10T02:06:32;1.90;61.30
52575;DHT22;38468;48.114;-1.684;2024-01-10T02:08:34;1.90;61.30
52575;DHT22;38468;48.114;-1.684;2024-01-10T02:10:35;1.80;61.30
52575;DHT22;38468;48.114;-1.684;2024-01-10T02:12:36;1.90;61.30
52575;DHT22;38468;48.114;-1.684;2024-01-10T02:14:36;1.90;61.30
52575;DHT22;38468;48.114;-1.684;2024-01-10T02:16:37;1.90;61.40
52575;DHT22;38468;48.114;-1.684;2024-01-10T02:18:38;1.90;61.50
52575;DHT22;38468;48.114;-1.684;2024-01-10T02:20:38;1.90;61.40
52575;DHT22;38468;48.114;-1.684;2024-01-10T02:22:39;1.90;61.40
52575;DHT22;38468;48.114;-1.684;2024-01-10T02:24:40;1.90;61.50
52575;DHT22;38468;48.114;-1.684;2024-01-10T02:26:41;1.90;61.50
52575;DHT22;38468;48.114;-1.684;2024-01-10T02:28:42;1.90;61.40
52575;DHT22;38468;48.114;-1.684;2024-01-10T02:30:42;1.90;61.60
52575;DHT22;38468;48.114;-1.684;2024-01-10T02:32:43;1.80;61.60
52575;DHT22;38468;48.114;-1.684;2024-01-10T02:34:44;1.80;61.60
52575;DHT22;38468;48.114;-1.684;2024-01-10T02:36:45;1.80;61.70
52575;DHT22;38468;48.114;-1.684;2024-01-10T02:38:46;1.80;61.70
52575;DHT22;38468;48.114;-1.684;2024-01-10T02:40:47;1.80;61.70
52575;DHT22;38468;48.114;-1.684;2024-01-10T02:42:48;1.80;61.70
52575;DHT22;38468;48.114;-1.684;2024-01-10T02:44:49;1.80;61.80
52575;DHT22;38468;48.114;-1.684;2024-01-10T02:46:49;1.70;61.70
52575;DHT22;38468;48.114;-1.684;2024-01-10T02:48:50;1.80;61.80
52575;DHT22;38468;48.114;-1.684;2024-01-10T02:50:52;1.80;62.00
52575;DHT22;38468;48.114;-1.684;2024-01-10T02:52:54;1.80;61.90
52575;DHT22;38468;48.114;-1.684;2024-01-10T02:54:55;1.80;61.90
52575;DHT22;38468;48.114;-1.684;2024-01-10T02:56:56;1.80;61.90
52575;DHT22;38468;48.114;-1.684;2024-01-10T02:58:57;1.70;61.90
52575;DHT22;38468;48.114;-1.684;2024-01-10T03:00:57;1.80;61.90
52575;DHT22;38468;48.114;-1.684;2024-01-10T03:02:59;1.80;62.10
52575;DHT22;38468;48.114;-1.684;2024-01-10T03:04:59;1.80;62.10
52575;DHT22;38468;48.114;-1.684;2024-01-10T03:07:00;1.80;62.10
52575;DHT22;38468;48.114;-1.684;2024-01-10T03:09:00;1.80;62.20
52575;DHT22;38468;48.114;-1.684;2024-01-10T03:11:01;1.80;62.20
52575;DHT22;38468;48.114;-1.684;2024-01-10T03:13:02;1.80;62.20
52575;DHT22;38468;48.114;-1.684;2024-01-10T03:15:05;1.80;62.00
52575;DHT22;38468;48.114;-1.684;2024-01-10T03:17:06;1.90;62.10
52575;DHT22;38468;48.114;-1.684;2024-01-10T03:19:07;1.80;62.10
52575;DHT22;38468;48.114;-1.684;2024-01-10T03:21:07;1.90;62.30
52575;DHT22;38468;48.114;-1.684;2024-01-10T03:23:08;1.80;62.30
52575;DHT22;38468;48.114;-1.684;2024-01-10T03:25:08;1.80;62.30
52575;DHT22;38468;48.114;-1.684;2024-01-10T03:27:09;1.80;62.30
52575;DHT22;38468;48.114;-1.684;2024-01-10T03:29:10;1.90;62.30
52575;DHT22;38468;48.114;-1.684;2024-01-10T03:31:11;1.80;62.30
52575;DHT22;38468;48.114;-1.684;2024-01-10T03:33:11;1.90;62.40
52575;DHT22;38468;48.114;-1.684;2024-01-10T03:35:12;1.80;62.40
52575;DHT22;38468;48.114;-1.684;2024-01-10T03:37:13;1.80;62.30
52575;DHT22;38468;48.114;-1.684;2024-01-10T03:39:16;1.80;62.40
52575;DHT22;38468;48.114;-1.684;2024-01-10T03:41:18;1.80;62.20
52575;DHT22;38468;48.114;-1.684;2024-01-10T03:43:18;1.80;62.30
52575;DHT22;38468;48.114;-1.684;2024-01-10T03:45:19;1.80;62.30
52575;DHT22;38468;48.114;-1.684;2024-01-10T03:47:23;1.80;62.40
52575;DHT22;38468;48.114;-1.684;2024-01-10T03:49:23;1.80;62.50
52575;DHT22;38468;48.114;-1.684;2024-01-10T03:51:25;1.80;62.50
52575;DHT22;38468;48.114;-1.684;2024-01-10T03:53:25;1.90;62.60
52575;DHT22;38468;48.114;-1.684;2024-01-10T03:55:26;1.90;62.60
52575;DHT22;38468;48.114;-1.684;2024-01-10T03:57:26;1.90;62.60
52575;DHT22;38468;48.114;-1.684;2024-01-10T03:59:27;1.80;62.50
52575;DHT22;38468;48.114;-1.684;2024-01-10T04:01:28;1.90;62.50
52575;DHT22;38468;48.114;-1.684;2024-01-10T04:03:28;1.80;62.50
52575;DHT22;38468;48.114;-1.684;2024-01-10T04:05:29;1.80;62.60
52575;DHT22;38468;48.114;-1.684;2024-01-10T04:07:29;1.70;62.40
52575;DHT22;38468;48.114;-1.684;2024-01-10T04:09:30;1.70;62.40
52575;DHT22;38468;48.114;-1.684;2024-01-10T04:11:31;1.60;62.30
52575;DHT22;38468;48.114;-1.684;2024-01-10T04:13:31;1.60;62.30
52575;DHT22;38468;48.114;-1.684;2024-01-10T04:15:32;1.60;62.40
52575;DHT22;38468;48.114;-1.684;2024-01-10T04:17:33;1.60;62.40
52575;DHT22;38468;48.114;-1.684;2024-01-10T04:19:33;1.60;62.40
52575;DHT22;38468;48.114;-1.684;2024-01-10T04:21:34;1.50;62.40
52575;DHT22;38468;48.114;-1.684;2024-01-10T04:23:34;1.50;62.40
52575;DHT22;38468;48.114;-1.684;2024-01-10T04:25:35;1.50;62.40
52575;DHT22;38468;48.114;-1.684;2024-01-10T04:27:36;1.50;62.50
52575;DHT22;38468;48.114;-1.684;2024-01-10T04:29:37;1.40;62.50
52575;DHT22;38468;48.114;-1.684;2024-01-10T04:31:38;1.40;62.40
52575;DHT22;38468;48.114;-1.684;2024-01-10T04:33:39;1.40;62.40
52575;DHT22;38468;48.114;-1.684;2024-01-10T04:35:39;1.40;62.50
52575;DHT22;38468;48.114;-1.684;2024-01-10T04:37:40;1.40;62.60
52575;DHT22;38468;48.114;-1.684;2024-01-10T04:39:40;1.40;62.70
52575;DHT22;38468;48.114;-1.684;2024-01-10T04:41:43;1.50;62.70
52575;DHT22;38468;48.114;-1.684;2024-01-10T04:43:43;1.40;62.60
52575;DHT22;38468;48.114;-1.684;2024-01-10T04:45:44;1.50;62.70
52575;DHT22;38468;48.114;-1.684;2024-01-10T04:47:45;1.50;62.70
52575;DHT22;38468;48.114;-1.684;2024-01-10T04:49:45;1.50;62.70
52575;DHT22;38468;48.114;-1.684;2024-01-10T04:51:46;1.50;62.70
52575;DHT22;38468;48.114;-1.684;2024-01-10T04:53:46;1.50;62.70
52575;DHT22;38468;48.114;-1.684;2024-01-10T04:55:47;1.50;62.60
52575;DHT22;38468;48.114;-1.684;2024-01-10T04:57:48;1.50;62.60
52575;DHT22;38468;48.114;-1.684;2024-01-10T04:59:48;1.50;62.50
52575;DHT22;38468;48.114;-1.684;2024-01-10T05:01:49;1.40;62.50
52575;DHT22;38468;48.114;-1.684;2024-01-10T05:03:50;1.40;62.40
52575;DHT22;38468;48.114;-1.684;2024-01-10T05:05:51;1.40;62.50
52575;DHT22;38468;48.114;-1.684;2024-01-10T05:07:51;1.40;62.40
52575;DHT22;38468;48.114;-1.684;2024-01-10T05:09:52;1.40;62.50
52575;DHT22;38468;48.114;-1.684;2024-01-10T05:11:52;1.40;62.50
52575;DHT22;38468;48.114;-1.684;2024-01-10T05:13:53;1.40;62.40
52575;DHT22;38468;48.114;-1.684;2024-01-10T05:15:54;1.40;62.50
52575;DHT22;38468;48.114;-1.684;2024-01-10T05:17:55;1.40;62.60
52575;DHT22;38468;48.114;-1.684;2024-01-10T05:19:56;1.40;62.60
52575;DHT22;38468;48.114;-1.684;2024-01-10T05:21:57;1.40;62.50
52575;DHT22;38468;48.114;-1.684;2024-01-10T05:23:58;1.40;62.50
52575;DHT22;38468;48.114;-1.684;2024-01-10T05:26:01;1.30;62.40
52575;DHT22;38468;48.114;-1.684;2024-01-10T05:28:02;1.30;62.20
52575;DHT22;38468;48.114;-1.684;2024-01-10T05:30:03;1.30;62.30
52575;DHT22;38468;48.114;-1.684;2024-01-10T05:32:04;1.30;62.40
52575;DHT22;38468;48.114;-1.684;2024-01-10T05:34:05;1.30;62.50
52575;DHT22;38468;48.114;-1.684;2024-01-10T05:36:05;1.30;62.50
52575;DHT22;38468;48.114;-1.684;2024-01-10T05:38:06;1.30;62.50
52575;DHT22;38468;48.114;-1.684;2024-01-10T05:40:07;1.30;62.40
52575;DHT22;38468;48.114;-1.684;2024-01-10T05:42:08;1.30;62.40
52575;DHT22;38468;48.114;-1.684;2024-01-10T05:44:09;1.20;62.40
52575;DHT22;38468;48.114;-1.684;2024-01-10T05:46:10;1.30;62.40
52575;DHT22;38468;48.114;-1.684;2024-01-10T05:48:10;1.20;62.40
52575;DHT22;38468;48.114;-1.684;2024-01-10T05:50:11;1.30;62.40
52575;DHT22;38468;48.114;-1.684;2024-01-10T05:52:11;1.30;62.50
52575;DHT22;38468;48.114;-1.684;2024-01-10T05:54:12;1.30;62.50
52575;DHT22;38468;48.114;-1.684;2024-01-10T05:56:13;1.30;62.50
52575;DHT22;38468;48.114;-1.684;2024-01-10T05:58:13;1.30;62.50
52575;DHT22;38468;48.114;-1.684;2024-01-10T06:00:14;1.40;62.60
52575;DHT22;38468;48.114;-1.684;2024-01-10T06:02:16;1.40;62.50
52575;DHT22;38468;48.114;-1.684;2024-01-10T06:04:17;1.30;62.50
52575;DHT22;38468;48.114;-1.684;2024-01-10T06:06:18;1.30;62.40
52575;DHT22;38468;48.114;-1.684;2024-01-10T06:08:18;1.30;62.30
52575;DHT22;38468;48.114;-1.684;2024-01-10T06:10:19;1.30;62.30
52575;DHT22;38468;48.114;-1.684;2024-01-10T06:12:20;1.30;62.30
52575;DHT22;38468;48.114;-1.684;2024-01-10T06:14:20;1.30;62.40
52575;DHT22;38468;48.114;-1.684;2024-01-10T06:16:21;1.30;62.60
52575;DHT22;38468;48.114;-1.684;2024-01-10T06:18:21;1.30;62.50
52575;DHT22;38468;48.114;-1.684;2024-01-10T06:20:22;1.40;62.60
52575;DHT22;38468;48.114;-1.684;2024-01-10T06:22:23;1.40;62.60
52575;DHT22;38468;48.114;-1.684;2024-01-10T06:24:26;1.40;62.60
52575;DHT22;38468;48.114;-1.684;2024-01-10T06:26:27;1.40;62.60
52575;DHT22;38468;48.114;-1.684;2024-01-10T06:28:27;1.40;62.60
52575;DHT22;38468;48.114;-1.684;2024-01-10T06:30:28;1.40;62.60
52575;DHT22;38468;48.114;-1.684;2024-01-10T06:32:28;1.40;62.70
52575;DHT22;38468;48.114;-1.684;2024-01-10T06:34:29;1.50;62.60
52575;DHT22;38468;48.114;-1.684;2024-01-10T06:36:30;1.50;62.60
52575;DHT22;38468;48.114;-1.684;2024-01-10T06:38:30;1.50;62.60
52575;DHT22;38468;48.114;-1.684;2024-01-10T06:40:31;1.50;62.70
52575;DHT22;38468;48.114;-1.684;2024-01-10T06:42:31;1.50;62.70
52575;DHT22;38468;48.114;-1.684;2024-01-10T06:44:32;1.50;62.70
52575;DHT22;38468;48.114;-1.684;2024-01-10T06:46:34;1.50;62.60
52575;DHT22;38468;48.114;-1.684;2024-01-10T06:48:35;1.60;62.60
52575;DHT22;38468;48.114;-1.684;2024-01-10T06:50:36;1.50;62.50
52575;DHT22;38468;48.114;-1.684;2024-01-10T06:52:37;1.50;62.40
52575;DHT22;38468;48.114;-1.684;2024-01-10T06:54:38;1.40;62.30
52575;DHT22;38468;48.114;-1.684;2024-01-10T06:56:38;1.40;62.30
52575;DHT22;38468;48.114;-1.684;2024-01-10T06:58:39;1.40;62.30
52575;DHT22;38468;48.114;-1.684;2024-01-10T07:00:40;1.40;62.40
52575;DHT22;38468;48.114;-1.684;2024-01-10T07:02:41;1.40;62.40
52575;DHT22;38468;48.114;-1.684;2024-01-10T07:04:42;1.50;62.50
52575;DHT22;38468;48.114;-1.684;2024-01-10T07:06:43;1.40;62.60
52575;DHT22;38468;48.114;-1.684;2024-01-10T07:08:44;1.50;62.60
52575;DHT22;38468;48.114;-1.684;2024-01-10T07:10:47;1.50;62.50
52575;DHT22;38468;48.114;-1.684;2024-01-10T07:12:47;1.50;62.60
52575;DHT22;38468;48.114;-1.684;2024-01-10T07:14:48;1.50;62.60
52575;DHT22;38468;48.114;-1.684;2024-01-10T07:16:49;1.50;62.50
52575;DHT22;38468;48.114;-1.684;2024-01-10T07:18:49;1.50;62.50
52575;DHT22;38468;48.114;-1.684;2024-01-10T07:20:51;1.50;62.60
52575;DHT22;38468;48.114;-1.684;2024-01-10T07:22:53;1.50;62.50
52575;DHT22;38468;48.114;-1.684;2024-01-10T07:24:55;1.50;62.50
52575;DHT22;38468;48.114;-1.684;2024-01-10T07:26:55;1.50;62.50
52575;DHT22;38468;48.114;-1.684;2024-01-10T07:28:57;1.50;62.50
52575;DHT22;38468;48.114;-1.684;2024-01-10T07:30:58;1.50;62.60
52575;DHT22;38468;48.114;-1.684;2024-01-10T07:32:58;1.50;62.60
52575;DHT22;38468;48.114;-1.684;2024-01-10T07:34:59;1.50;62.60
52575;DHT22;38468;48.114;-1.684;2024-01-10T07:37:00;1.50;62.60
52575;DHT22;38468;48.114;-1.684;2024-01-10T07:39:00;1.50;62.60
52575;DHT22;38468;48.114;-1.684;2024-01-10T07:41:01;1.50;62.60
52575;DHT22;38468;48.114;-1.684;2024-01-10T07:43:02;1.50;62.50
52575;DHT22;38468;48.114;-1.684;2024-01-10T07:45:04;1.50;62.50
52575;DHT22;38468;48.114;-1.684;2024-01-10T07:47:05;1.50;62.50
52575;DHT22;38468;48.114;-1.684;2024-01-10T07:49:05;1.40;62.50
52575;DHT22;38468;48.114;-1.684;2024-01-10T07:51:06;1.40;62.30
52575;DHT22;38468;48.114;-1.684;2024-01-10T07:53:07;1.40;62.50
52575;DHT22;38468;48.114;-1.684;2024-01-10T07:55:08;1.40;62.50
52575;DHT22;38468;48.114;-1.684;2024-01-10T07:57:09;1.40;62.60
52575;DHT22;38468;48.114;-1.684;2024-01-10T07:59:09;1.40;62.60
52575;DHT22;38468;48.114;-1.684;2024-01-10T08:01:10;1.40;62.60
52575;DHT22;38468;48.114;-1.684;2024-01-10T08:03:11;1.40;62.70
52575;DHT22;38468;48.114;-1.684;2024-01-10T08:05:12;1.40;62.70
52575;DHT22;38468;48.114;-1.684;2024-01-10T08:07:13;1.50;62.70
52575;DHT22;38468;48.114;-1.684;2024-01-10T08:09:14;1.50;62.70
52575;DHT22;38468;48.114;-1.684;2024-01-10T08:11:14;1.50;62.70
52575;DHT22;38468;48.114;-1.684;2024-01-10T08:13:15;1.50;62.70
52575;DHT22;38468;48.114;-1.684;2024-01-10T08:15:16;1.50;62.70
52575;DHT22;38468;48.114;-1.684;2024-01-10T08:17:17;1.50;62.70
52575;DHT22;38468;48.114;-1.684;2024-01-10T08:19:17;1.50;62.80
52575;DHT22;38468;48.114;-1.684;2024-01-10T08:21:18;1.50;62.80
52575;DHT22;38468;48.114;-1.684;2024-01-10T08:23:19;1.50;62.80
52575;DHT22;38468;48.114;-1.684;2024-01-10T08:25:23;1.50;62.80
52575;DHT22;38468;48.114;-1.684;2024-01-10T08:27:27;1.50;62.80
52575;DHT22;38468;48.114;-1.684;2024-01-10T08:29:30;1.50;62.70
52575;DHT22;38468;48.114;-1.684;2024-01-10T08:31:32;1.50;62.80
52575;DHT22;38468;48.114;-1.684;2024-01-10T08:33:32;1.40;62.80
52575;DHT22;38468;48.114;-1.684;2024-01-10T08:35:36;1.50;62.80
52575;DHT22;38468;48.114;-1.684;2024-01-10T08:37:37;1.50;62.80
52575;DHT22;38468;48.114;-1.684;2024-01-10T08:39:43;1.50;62.90
52575;DHT22;38468;48.114;-1.684;2024-01-10T08:41:44;1.50;62.80
52575;DHT22;38468;48.114;-1.684;2024-01-10T08:43:49;1.50;62.80
52575;DHT22;38468;48.114;-1.684;2024-01-10T08:45:52;1.50;62.80
52575;DHT22;38468;48.114;-1.684;2024-01-10T08:47:53;1.50;62.90
52575;DHT22;38468;48.114;-1.684;2024-01-10T08:49:55;1.50;63.00
52575;DHT22;38468;48.114;-1.684;2024-01-10T08:51:56;1.50;63.00
52575;DHT22;38468;48.114;-1.684;2024-01-10T08:54:07;1.50;62.90
52575;DHT22;38468;48.114;-1.684;2024-01-10T08:56:10;1.50;63.00
52575;DHT22;38468;48.114;-1.684;2024-01-10T08:58:14;1.50;62.90
52575;DHT22;38468;48.114;-1.684;2024-01-10T09:00:18;1.50;62.90
52575;DHT22;38468;48.114;-1.684;2024-01-10T09:02:20;1.50;63.00
52575;DHT22;38468;48.114;-1.684;2024-01-10T09:04:21;1.50;62.90
52575;DHT22;38468;48.114;-1.684;2024-01-10T09:06:22;1.50;62.90
52575;DHT22;38468;48.114;-1.684;2024-01-10T09:08:26;1.50;62.90
52575;DHT22;38468;48.114;-1.684;2024-01-10T09:10:27;1.50;63.00
52575;DHT22;38468;48.114;-1.684;2024-01-10T09:12:28;1.50;63.20
52575;DHT22;38468;48.114;-1.684;2024-01-10T09:14:32;1.60;63.10
52575;DHT22;38468;48.114;-1.684;2024-01-10T09:16:36;1.50;63.00
52575;DHT22;38468;48.114;-1.684;2024-01-10T09:18:39;1.50;63.00
52575;DHT22;38468;48.114;-1.684;2024-01-10T09:20:44;1.60;63.20
52575;DHT22;38468;48.114;-1.684;2024-01-10T09:22:45;1.60;63.20
52575;DHT22;38468;48.114;-1.684;2024-01-10T09:24:46;1.60;63.20
52575;DHT22;38468;48.114;-1.684;2024-01-10T09:26:47;1.60;63.10
52575;DHT22;38468;48.114;-1.684;2024-01-10T09:28:48;1.60;63.10
52575;DHT22;38468;48.114;-1.684;2024-01-10T09:30:49;1.60;63.10
52575;DHT22;38468;48.114;-1.684;2024-01-10T09:32:52;1.60;63.20
52575;DHT22;38468;48.114;-1.684;2024-01-10T09:34:53;1.70;63.20
52575;DHT22;38468;48.114;-1.684;2024-01-10T09:36:54;1.60;63.20
52575;DHT22;38468;48.114;-1.684;2024-01-10T09:38:58;1.70;63.30
52575;DHT22;38468;48.114;-1.684;2024-01-10T09:41:04;1.70;63.40
52575;DHT22;38468;48.114;-1.684;2024-01-10T09:43:05;1.70;63.30
52575;DHT22;38468;48.114;-1.684;2024-01-10T09:45:10;1.70;63.40
52575;DHT22;38468;48.114;-1.684;2024-01-10T09:47:17;1.80;63.40
52575;DHT22;38468;48.114;-1.684;2024-01-10T09:49:20;1.80;63.50
52575;DHT22;38468;48.114;-1.684;2024-01-10T09:51:23;1.80;63.40
52575;DHT22;38468;48.114;-1.684;2024-01-10T09:53:25;1.80;63.40
52575;DHT22;38468;48.114;-1.684;2024-01-10T09:55:35;1.90;63.40
52575;DHT22;38468;48.114;-1.684;2024-01-10T09:57:36;1.80;63.40
52575;DHT22;38468;48.114;-1.684;2024-01-10T09:59:42;1.80;63.40
52575;DHT22;38468;48.114;-1.684;2024-01-10T10:01:44;1.90;63.40
52575;DHT22;38468;48.114;-1.684;2024-01-10T10:03:46;1.90;63.40
52575;DHT22;38468;48.114;-1.684;2024-01-10T10:05:48;1.80;63.40
52575;DHT22;38468;48.114;-1.684;2024-01-10T10:07:50;1.90;63.40
52575;DHT22;38468;48.114;-1.684;2024-01-10T10:09:51;1.90;63.50
52575;DHT22;38468;48.114;-1.684;2024-01-10T10:12:00;1.90;63.40
52575;DHT22;38468;48.114;-1.684;2024-01-10T10:14:21;1.90;63.30
52575;DHT22;38468;48.114;-1.684;2024-01-10T10:16:26;1.80;63.30
52575;DHT22;38468;48.114;-1.684;2024-01-10T10:18:28;1.80;63.20
52575;DHT22;38468;48.114;-1.684;2024-01-10T10:20:30;1.80;63.30
52575;DHT22;38468;48.114;-1.684;2024-01-10T10:22:35;1.80;63.30
52575;DHT22;38468;48.114;-1.684;2024-01-10T10:24:37;1.80;63.40
52575;DHT22;38468;48.114;-1.684;2024-01-10T10:26:39;1.80;63.50
52575;DHT22;38468;48.114;-1.684;2024-01-10T10:28:41;1.80;63.40
52575;DHT22;38468;48.114;-1.684;2024-01-10T10:30:42;1.80;63.40
52575;DHT22;38468;48.114;-1.684;2024-01-10T10:32:46;1.80;63.50
52575;DHT22;38468;48.114;-1.684;2024-01-10T10:34:50;1.90;63.60
52575;DHT22;38468;48.114;-1.684;2024-01-10T10:36:51;1.90;63.60
52575;DHT22;38468;48.114;-1.684;2024-01-10T10:38:52;1.90;63.60
52575;DHT22;38468;48.114;-1.684;2024-01-10T10:40:58;1.90;63.60
52575;DHT22;38468;48.114;-1.684;2024-01-10T10:43:01;1.90;63.70
52575;DHT22;38468;48.114;-1.684;2024-01-10T10:45:09;1.90;63.70
52575;DHT22;38468;48.114;-1.684;2024-01-10T10:47:14;1.90;63.70
52575;DHT22;38468;48.114;-1.684;2024-01-10T10:49:15;2.00;63.70
52575;DHT22;38468;48.114;-1.684;2024-01-10T10:51:35;2.00;63.60
52575;DHT22;38468;48.114;-1.684;2024-01-10T10:53:42;2.00;63.70
52575;DHT22;38468;48.114;-1.684;2024-01-10T10:55:46;2.00;63.80
52575;DHT22;38468;48.114;-1.684;2024-01-10T10:57:49;2.10;63.80
52575;DHT22;38468;48.114;-1.684;2024-01-10T10:59:53;2.10;63.80
52575;DHT22;38468;48.114;-1.684;2024-01-10T11:01:54;2.10;63.90
52575;DHT22;38468;48.114;-1.684;2024-01-10T11:03:56;2.20;63.90
52575;DHT22;38468;48.114;-1.684;2024-01-10T11:06:02;2.20;63.90
52575;DHT22;38468;48.114;-1.684;2024-01-10T11:08:04;2.20;63.80
52575;DHT22;38468;48.114;-1.684;2024-01-10T11:10:10;2.20;63.70
52575;DHT22;38468;48.114;-1.684;2024-01-10T11:12:26;2.20;63.60
52575;DHT22;38468;48.114;-1.684;2024-01-10T11:24:14;2.20;63.80
52575;DHT22;38468;48.114;-1.684;2024-01-10T11:26:15;2.20;63.80
52575;DHT22;38468;48.114;-1.684;2024-01-10T11:28:17;2.30;63.80
52575;DHT22;38468;48.114;-1.684;2024-01-10T11:30:51;2.20;63.80
52575;DHT22;38468;48.114;-1.684;2024-01-10T11:32:56;2.20;63.90
52575;DHT22;38468;48.114;-1.684;2024-01-10T11:35:10;2.20;63.90
52575;DHT22;38468;48.114;-1.684;2024-01-10T11:37:12;2.20;63.90
52575;DHT22;38468;48.114;-1.684;2024-01-10T11:39:16;2.30;63.90
52575;DHT22;38468;48.114;-1.684;2024-01-10T11:43:22;2.20;63.80
52575;DHT22;38468;48.114;-1.684;2024-01-10T11:47:29;2.30;63.90
52575;DHT22;38468;48.114;-1.684;2024-01-10T11:49:30;2.20;63.80
52575;DHT22;38468;48.114;-1.684;2024-01-10T11:51:32;2.20;63.80
52575;DHT22;38468;48.114;-1.684;2024-01-10T11:53:43;2.20;63.80
52575;DHT22;38468;48.114;-1.684;2024-01-10T11:55:56;2.20;63.90
52575;DHT22;38468;48.114;-1.684;2024-01-10T11:58:11;2.30;64.00
52575;DHT22;38468;48.114;-1.684;2024-01-10T12:00:18;2.30;64.00
52575;DHT22;38468;48.114;-1.684;2024-01-10T12:02:20;2.30;64.00
52575;DHT22;38468;48.114;-1.684;2024-01-10T12:04:21;2.30;63.90
52575;DHT22;38468;48.114;-1.684;2024-01-10T12:06:25;2.30;63.90
52575;DHT22;38468;48.114;-1.684;2024-01-10T12:08:29;2.20;63.80
52575;DHT22;38468;48.114;-1.684;2024-01-10T12:10:30;2.20;63.80
52575;DHT22;38468;48.114;-1.684;2024-01-10T12:12:39;2.30;63.90
52575;DHT22;38468;48.114;-1.684;2024-01-10T12:14:43;2.20;64.10
52575;DHT22;38468;48.114;-1.684;2024-01-10T12:16:47;2.30;64.10
52575;DHT22;38468;48.114;-1.684;2024-01-10T12:18:48;2.30;64.10
52575;DHT22;38468;48.114;-1.684;2024-01-10T12:20:50;2.30;64.10
52575;DHT22;38468;48.114;-1.684;2024-01-10T12:22:51;2.30;64.20
52575;DHT22;38468;48.114;-1.684;2024-01-10T12:24:52;2.30;64.20
52575;DHT22;38468;48.114;-1.684;2024-01-10T12:26:56;2.40;64.20
52575;DHT22;38468;48.114;-1.684;2024-01-10T12:29:02;2.40;64.20
52575;DHT22;38468;48.114;-1.684;2024-01-10T12:31:07;2.40;64.30
52575;DHT22;38468;48.114;-1.684;2024-01-10T12:33:11;2.40;64.20
52575;DHT22;38468;48.114;-1.684;2024-01-10T12:35:12;2.40;64.10
52575;DHT22;38468;48.114;-1.684;2024-01-10T12:37:12;2.40;64.10
52575;DHT22;38468;48.114;-1.684;2024-01-10T12:39:13;2.40;64.20
52575;DHT22;38468;48.114;-1.684;2024-01-10T12:41:15;2.40;64.30
52575;DHT22;38468;48.114;-1.684;2024-01-10T12:43:19;2.40;64.20
52575;DHT22;38468;48.114;-1.684;2024-01-10T12:45:22;2.50;64.20
52575;DHT22;38468;48.114;-1.684;2024-01-10T12:47:25;2.50;64.20
52575;DHT22;38468;48.114;-1.684;2024-01-10T12:49:25;2.40;64.10
52575;DHT22;38468;48.114;-1.684;2024-01-10T12:51:28;2.40;64.10
52575;DHT22;38468;48.114;-1.684;2024-01-10T12:53:36;2.40;64.20
52575;DHT22;38468;48.114;-1.684;2024-01-10T12:55:37;2.40;64.20
52575;DHT22;38468;48.114;-1.684;2024-01-10T12:57:38;2.50;64.20
52575;DHT22;38468;48.114;-1.684;2024-01-10T12:59:38;2.40;64.10
52575;DHT22;38468;48.114;-1.684;2024-01-10T13:01:39;2.40;64.00
52575;DHT22;38468;48.114;-1.684;2024-01-10T13:03:40;2.40;64.00